createdAt,value
2023-12-19T00:01:16.519Z,64.31
2023-12-19T00:03:43.250Z,63.12
2023-12-19T00:06:09.730Z,63.79
2023-12-19T00:08:37.461Z,63.11
2023-12-19T00:11:04.295Z,63.67
2023-12-19T00:13:30.706Z,64.12
2023-12-19T00:15:57.308Z,62.96
2023-12-19T00:18:23.983Z,63.29
2023-12-19T00:20:53.918Z,62.12
2023-12-19T00:23:20.486Z,62.37
2023-12-19T00:25:47.244Z,62.50
2023-12-19T00:28:14.955Z,62.23
2023-12-19T00:30:41.645Z,63.35
2023-12-19T00:33:08.311Z,63.26
2023-12-19T00:35:34.927Z,64.04
2023-12-19T00:38:04.465Z,65.67
2023-12-19T00:40:30.969Z,65.12
2023-12-19T00:42:57.569Z,65.08
2023-12-19T00:45:24.117Z,64.84
2023-12-19T00:47:50.721Z,63.98
2023-12-19T00:50:17.326Z,64.37
2023-12-19T00:52:44.220Z,63.82
2023-12-19T00:55:11.049Z,63.86
2023-12-19T00:57:37.681Z,63.81
2023-12-19T01:00:05.276Z,62.96
2023-12-19T01:02:34.496Z,63.46
2023-12-19T01:05:01.110Z,62.67
2023-12-19T01:07:27.680Z,62.62
2023-12-19T01:09:54.428Z,62.87
2023-12-19T01:12:21.454Z,63.71
2023-12-19T01:14:48.083Z,63.42
2023-12-19T01:17:14.750Z,63.93
2023-12-19T01:19:42.168Z,64.22
2023-12-19T01:22:08.740Z,66.52
2023-12-19T01:24:35.612Z,68.46
2023-12-19T01:27:02.178Z,68.17
2023-12-19T01:29:28.625Z,68.82
2023-12-19T01:31:55.248Z,68.84
2023-12-19T01:34:22.243Z,69.21
2023-12-19T01:36:56.912Z,69.46
2023-12-19T01:39:24.819Z,69.90
2023-12-19T01:41:51.410Z,69.74
2023-12-19T01:44:19.284Z,70.69
2023-12-19T01:46:47.608Z,69.22
2023-12-19T01:49:14.731Z,68.73
2023-12-19T01:51:41.877Z,68.17
2023-12-19T01:54:10.128Z,68.46
2023-12-19T01:56:37.370Z,67.14
2023-12-19T01:59:06.547Z,67.04
2023-12-19T02:01:36.165Z,66.99
2023-12-19T02:04:03.218Z,66.98
2023-12-19T02:06:34.275Z,66.91
2023-12-19T02:09:02.310Z,66.22
2023-12-19T02:11:30.005Z,66.01
2023-12-19T02:13:59.359Z,66.87
2023-12-19T02:16:27.666Z,67.18
2023-12-19T02:19:20.733Z,69.86
2023-12-19T02:21:47.391Z,71.87
2023-12-19T02:24:13.977Z,72.13
2023-12-19T02:26:41.360Z,73.05
2023-12-19T02:29:07.879Z,72.93
2023-12-19T02:31:34.508Z,74.87
2023-12-19T02:34:01.119Z,74.85
2023-12-19T02:36:27.836Z,75.83
2023-12-19T02:38:54.424Z,78.17
2023-12-19T02:41:21.002Z,78.79
2023-12-19T02:43:54.193Z,79.83
2023-12-19T02:46:23.235Z,81.05
2023-12-19T02:48:49.912Z,80.59
2023-12-19T02:51:19.738Z,80.41
2023-12-19T02:53:46.588Z,81.86
2023-12-19T02:56:13.089Z,83.08
2023-12-19T02:58:41.380Z,82.21
2023-12-19T03:01:08.338Z,82.34
2023-12-19T03:03:35.138Z,83.75
2023-12-19T03:06:02.413Z,83.99
2023-12-19T03:08:29.071Z,83.74
2023-12-19T03:10:57.479Z,83.14
2023-12-19T03:13:24.051Z,82.84
2023-12-19T03:15:50.595Z,82.99
2023-12-19T03:18:17.256Z,82.74
2023-12-19T03:20:44.643Z,82.07
2023-12-19T03:23:11.185Z,80.84
2023-12-19T03:25:37.792Z,81.20
2023-12-19T03:28:04.865Z,79.37
2023-12-19T03:30:31.495Z,78.02
2023-12-19T03:32:58.040Z,76.81
2023-12-19T03:35:24.588Z,78.28
2023-12-19T03:37:51.682Z,80.95
2023-12-19T03:40:18.279Z,80.63
2023-12-19T03:42:45.238Z,79.33
2023-12-19T03:45:12.085Z,79.00
2023-12-19T03:47:39.593Z,79.01
2023-12-19T03:50:07.223Z,79.59
2023-12-19T03:52:34.006Z,79.42
2023-12-19T03:55:00.970Z,77.88
2023-12-19T03:57:28.181Z,77.46
2023-12-19T03:59:55.569Z,77.71
2023-12-19T04:02:22.110Z,79.06
2023-12-19T04:04:48.652Z,81.39
2023-12-19T04:07:15.171Z,81.60
2023-12-19T04:09:41.881Z,81.82
2023-12-19T04:12:10.398Z,81.57
2023-12-19T04:14:37.100Z,83.24
2023-12-19T04:17:04.018Z,82.75
2023-12-19T04:19:30.551Z,82.84
2023-12-19T04:21:58.997Z,84.11
2023-12-19T04:24:27.776Z,84.13
2023-12-19T04:26:54.768Z,84.49
2023-12-19T04:29:21.307Z,84.97
2023-12-19T04:31:48.005Z,84.03
2023-12-19T04:34:15.054Z,83.68
2023-12-19T04:36:41.836Z,84.00
2023-12-19T04:39:08.596Z,83.19
2023-12-19T04:41:35.566Z,85.04
2023-12-19T04:44:01.978Z,85.71
2023-12-19T04:46:28.523Z,85.34
2023-12-19T04:48:56.989Z,87.02
2023-12-19T04:51:23.820Z,87.81
2023-12-19T04:53:50.509Z,87.90
2023-12-19T04:56:18.067Z,87.71
2023-12-19T04:58:48.811Z,88.00
2023-12-19T05:01:15.704Z,87.13
2023-12-19T05:03:43.597Z,85.88
2023-12-19T05:06:11.120Z,85.09
2023-12-19T05:08:37.691Z,85.99
2023-12-19T05:11:04.987Z,87.72
2023-12-19T05:13:31.547Z,87.85
2023-12-19T05:15:58.144Z,88.65
2023-12-19T05:18:24.880Z,88.60
2023-12-19T05:20:51.578Z,88.29
2023-12-19T05:23:18.086Z,87.84
2023-12-19T05:25:44.738Z,88.40
2023-12-19T05:28:11.351Z,88.67
2023-12-19T05:30:37.967Z,88.29
2023-12-19T05:33:04.828Z,87.26
2023-12-19T05:35:31.870Z,86.73
2023-12-19T05:37:58.983Z,87.37
2023-12-19T05:40:25.570Z,86.14
2023-12-19T05:42:55.656Z,84.13
2023-12-19T05:45:22.321Z,82.76
2023-12-19T05:47:49.506Z,82.74
2023-12-19T05:50:16.261Z,84.14
2023-12-19T05:52:42.853Z,85.19
2023-12-19T05:55:09.534Z,85.36
2023-12-19T05:57:37.875Z,86.82
2023-12-19T06:00:07.329Z,87.46
2023-12-19T06:02:34.026Z,87.48
2023-12-19T06:05:08.528Z,89.04
2023-12-19T06:07:38.482Z,88.75
2023-12-19T06:10:12.494Z,88.58
2023-12-19T06:12:39.905Z,88.05
2023-12-19T06:15:09.797Z,88.61
2023-12-19T06:17:36.924Z,89.07
2023-12-19T06:20:04.359Z,89.11
2023-12-19T06:22:30.970Z,88.86
2023-12-19T06:24:57.670Z,88.92
2023-12-19T06:27:24.264Z,87.96
2023-12-19T06:29:50.905Z,86.55
2023-12-19T06:32:17.465Z,85.20
2023-12-19T06:34:44.136Z,82.87
2023-12-19T06:37:10.707Z,82.44
2023-12-19T06:39:37.930Z,82.95
2023-12-19T06:42:04.838Z,83.95
2023-12-19T06:44:31.325Z,84.44
2023-12-19T06:46:58.062Z,84.16
2023-12-19T06:49:26.175Z,86.56
2023-12-19T06:51:54.365Z,85.64
2023-12-19T06:54:20.886Z,86.60
2023-12-19T06:56:47.451Z,86.48
2023-12-19T06:59:15.353Z,86.57
2023-12-19T07:01:41.993Z,88.26
2023-12-19T07:04:08.582Z,88.33
2023-12-19T07:06:36.155Z,88.82
2023-12-19T07:09:02.787Z,88.19
2023-12-19T07:11:29.408Z,87.57
2023-12-19T07:13:55.978Z,86.30
2023-12-19T07:16:23.250Z,85.10
2023-12-19T07:18:50.442Z,84.09
2023-12-19T07:21:20.945Z,82.46
2023-12-19T07:23:47.880Z,81.00
2023-12-19T07:26:24.421Z,79.58
2023-12-19T07:28:52.122Z,79.28
2023-12-19T07:31:22.261Z,81.25
2023-12-19T07:33:49.049Z,82.42
2023-12-19T07:36:15.703Z,83.33
2023-12-19T07:38:42.209Z,82.44
2023-12-19T07:41:08.749Z,84.01
2023-12-19T07:43:35.443Z,83.32
2023-12-19T07:46:04.316Z,82.56
2023-12-19T07:48:30.995Z,80.57
2023-12-19T07:50:58.206Z,79.65
2023-12-19T07:53:28.202Z,80.12
2023-12-19T07:55:54.733Z,82.92
2023-12-19T07:58:21.802Z,83.23
2023-12-19T08:00:48.910Z,84.51
2023-12-19T08:03:17.062Z,85.52
2023-12-19T08:05:51.367Z,85.55
2023-12-19T08:08:21.566Z,85.20
2023-12-19T08:10:48.148Z,83.70
2023-12-19T08:13:14.720Z,84.15
2023-12-19T08:15:41.969Z,84.01
2023-12-19T08:18:09.035Z,85.57
2023-12-19T08:20:35.682Z,87.57
2023-12-19T08:23:02.297Z,88.18
2023-12-19T08:25:28.964Z,88.74
2023-12-19T08:27:55.583Z,89.69
2023-12-19T08:30:25.685Z,89.21
2023-12-19T08:32:52.358Z,88.58
2023-12-19T08:35:19.457Z,87.58
2023-12-19T08:37:46.693Z,86.66
2023-12-19T08:40:13.331Z,87.14
2023-12-19T08:42:41.609Z,86.00
2023-12-19T08:45:18.873Z,86.24
2023-12-19T08:47:46.530Z,87.19
2023-12-19T08:50:15.073Z,88.13
2023-12-19T08:52:42.411Z,88.62
2023-12-19T08:55:13.634Z,88.58
2023-12-19T08:57:45.238Z,88.47
2023-12-19T09:00:19.880Z,87.53
2023-12-19T09:02:47.572Z,86.74
2023-12-19T09:05:15.957Z,85.73
2023-12-19T09:07:43.370Z,85.66
2023-12-19T09:10:12.712Z,84.64
2023-12-19T09:12:39.894Z,84.19
2023-12-19T09:15:08.062Z,82.98
2023-12-19T09:17:35.362Z,80.93
2023-12-19T09:20:05.968Z,80.29
2023-12-19T09:22:33.208Z,80.34
2023-12-19T09:24:59.932Z,79.25
2023-12-19T09:27:27.482Z,78.65
2023-12-19T09:29:54.211Z,78.75
2023-12-19T09:32:20.796Z,77.29
2023-12-19T09:34:48.202Z,76.65
2023-12-19T09:37:15.059Z,76.68
2023-12-19T09:39:41.768Z,78.92
2023-12-19T09:42:08.550Z,78.29
2023-12-19T09:44:35.216Z,78.14
2023-12-19T09:47:04.008Z,77.89
2023-12-19T09:49:33.718Z,79.29
2023-12-19T09:52:00.983Z,81.21
2023-12-19T09:54:27.841Z,83.92
2023-12-19T09:56:55.349Z,84.50
2023-12-19T09:59:22.591Z,85.82
2023-12-19T10:01:49.434Z,86.84
2023-12-19T10:04:17.377Z,87.82
2023-12-19T10:06:57.492Z,87.93
2023-12-19T10:09:24.234Z,88.83
2023-12-19T10:12:11.147Z,86.81
2023-12-19T10:14:38.612Z,85.75
2023-12-19T10:17:16.387Z,84.43
2023-12-19T10:19:43.384Z,83.42
2023-12-19T10:22:17.770Z,81.81
2023-12-19T10:24:44.416Z,80.62
2023-12-19T10:27:11.394Z,80.08
2023-12-19T10:29:38.139Z,79.38
2023-12-19T10:32:12.229Z,78.98
2023-12-19T10:34:39.488Z,78.30
2023-12-19T10:37:13.730Z,77.62
2023-12-19T10:39:43.763Z,76.85
2023-12-19T10:42:11.427Z,77.06
2023-12-19T10:44:41.965Z,78.71
2023-12-19T10:47:09.372Z,79.08
2023-12-19T10:49:40.162Z,78.71
2023-12-19T10:52:13.954Z,79.14
2023-12-19T10:54:42.915Z,79.48
2023-12-19T10:57:18.965Z,81.52
2023-12-19T10:59:57.731Z,85.00
2023-12-19T11:02:36.357Z,86.11
2023-12-19T11:05:13.807Z,83.85
2023-12-19T11:07:44.084Z,84.29
2023-12-19T11:10:12.355Z,85.20
2023-12-19T11:12:39.126Z,84.23
2023-12-19T11:15:06.749Z,83.10
2023-12-19T11:17:46.855Z,81.84
2023-12-19T11:20:37.962Z,82.18
2023-12-19T11:23:18.199Z,81.78
2023-12-19T11:26:07.098Z,82.08
2023-12-19T11:28:37.558Z,80.54
2023-12-19T11:31:04.408Z,79.62
2023-12-19T11:33:32.420Z,78.68
2023-12-19T11:36:12.392Z,77.18
2023-12-19T11:38:38.890Z,76.34
2023-12-19T11:41:05.413Z,76.46
2023-12-19T11:43:32.393Z,75.83
2023-12-19T11:46:17.279Z,76.47
2023-12-19T11:48:48.462Z,75.81
2023-12-19T11:51:35.307Z,75.23
2023-12-19T11:54:01.856Z,79.40
2023-12-19T11:56:28.379Z,81.69
2023-12-19T11:58:54.918Z,81.65
2023-12-19T12:01:24.515Z,79.85
2023-12-19T12:03:51.260Z,80.51
2023-12-19T12:06:22.043Z,79.46
2023-12-19T12:08:54.971Z,78.92
2023-12-19T12:11:21.512Z,78.07
2023-12-19T12:14:02.261Z,80.33
2023-12-19T12:16:39.342Z,83.06
2023-12-19T12:19:22.362Z,85.10
2023-12-19T12:21:51.507Z,86.37
2023-12-19T12:24:20.367Z,87.09
2023-12-19T12:26:52.859Z,87.43
2023-12-19T12:29:20.630Z,87.52
2023-12-19T12:31:48.851Z,86.35
2023-12-19T12:34:16.308Z,87.13
2023-12-19T12:36:48.285Z,86.29
2023-12-19T12:39:20.826Z,85.96
2023-12-19T12:41:47.486Z,85.94
2023-12-19T12:44:14.154Z,84.55
2023-12-19T12:46:45.437Z,84.04
2023-12-19T12:49:17.051Z,85.09
2023-12-19T12:51:44.603Z,83.03
2023-12-19T12:54:11.422Z,81.68
2023-12-19T12:56:42.106Z,81.89
2023-12-19T12:59:14.950Z,83.57
2023-12-19T13:01:43.007Z,81.58
2023-12-19T13:04:10.827Z,80.97
2023-12-19T13:06:45.264Z,79.78
2023-12-19T13:09:16.133Z,79.89
2023-12-19T13:11:44.042Z,80.91
2023-12-19T13:14:11.238Z,81.87
2023-12-19T13:16:38.191Z,80.96
2023-12-19T13:19:05.157Z,79.03
2023-12-19T13:21:33.077Z,78.21
2023-12-19T13:23:59.705Z,77.98
2023-12-19T13:26:33.964Z,77.71
2023-12-19T13:29:01.159Z,77.16
2023-12-19T13:31:28.784Z,76.49
2023-12-19T13:33:55.548Z,76.06
2023-12-19T13:36:22.691Z,76.64
2023-12-19T13:38:50.223Z,76.24
2023-12-19T13:41:17.694Z,76.26
2023-12-19T13:43:44.832Z,75.70
2023-12-19T13:46:12.013Z,75.73
2023-12-19T13:48:41.617Z,75.85
2023-12-19T13:51:10.772Z,75.97
2023-12-19T13:53:37.332Z,76.01
2023-12-19T13:56:05.923Z,76.27
2023-12-19T13:58:32.464Z,76.79
2023-12-19T14:00:59.185Z,76.54
2023-12-19T14:03:25.830Z,76.48
2023-12-19T14:05:52.505Z,76.58
2023-12-19T14:08:19.607Z,78.17
2023-12-19T14:10:46.398Z,79.22
2023-12-19T14:13:13.120Z,81.92
2023-12-19T14:15:40.473Z,85.09
2023-12-19T14:18:07.332Z,85.67
2023-12-19T14:20:33.794Z,87.28
2023-12-19T14:23:02.117Z,87.18
2023-12-19T14:25:29.204Z,88.18
2023-12-19T14:27:55.953Z,86.26
2023-12-19T14:30:22.616Z,86.36
2023-12-19T14:32:49.635Z,86.24
2023-12-19T14:35:17.282Z,86.18
2023-12-19T14:37:44.352Z,86.88
2023-12-19T14:40:13.525Z,86.30
2023-12-19T14:42:40.214Z,86.54
2023-12-19T14:45:07.409Z,85.83
2023-12-19T14:47:34.108Z,84.54
2023-12-19T14:50:00.993Z,83.44
2023-12-19T14:52:27.490Z,82.77
2023-12-19T14:54:54.128Z,82.04
2023-12-19T14:57:20.756Z,80.47
2023-12-19T14:59:47.316Z,80.00
2023-12-19T15:02:13.839Z,79.21
2023-12-19T15:04:40.452Z,81.12
2023-12-19T15:07:07.228Z,79.08
2023-12-19T15:09:34.859Z,78.68
2023-12-19T15:12:03.475Z,78.12
2023-12-19T15:14:31.523Z,78.07
2023-12-19T15:16:58.034Z,77.43
2023-12-19T15:19:24.736Z,77.05
2023-12-19T15:21:52.369Z,79.04
2023-12-19T15:24:19.482Z,78.55
2023-12-19T15:26:46.005Z,79.64
2023-12-19T15:29:15.851Z,78.78
2023-12-19T15:31:44.112Z,78.26
2023-12-19T15:34:11.220Z,80.16
2023-12-19T15:36:38.590Z,81.29
2023-12-19T15:39:05.440Z,80.94
2023-12-19T15:41:31.904Z,84.01
2023-12-19T15:44:07.853Z,84.67
2023-12-19T15:46:40.832Z,83.96
2023-12-19T15:49:09.864Z,83.83
2023-12-19T15:51:36.726Z,82.25
2023-12-19T15:54:04.593Z,82.48
2023-12-19T15:56:35.194Z,80.05
2023-12-19T15:59:05.434Z,79.88
2023-12-19T16:01:32.606Z,79.10
2023-12-19T16:04:00.059Z,78.23
2023-12-19T16:06:27.623Z,78.41
2023-12-19T16:08:55.198Z,78.23
2023-12-19T16:11:25.062Z,77.72
2023-12-19T16:13:53.751Z,79.93
2023-12-19T16:16:20.696Z,80.05
2023-12-19T16:18:48.778Z,81.07
2023-12-19T16:21:17.320Z,84.40
2023-12-19T16:23:56.978Z,85.17
2023-12-19T16:26:30.184Z,83.79
2023-12-19T16:28:56.864Z,82.65
2023-12-19T16:31:23.548Z,81.69
2023-12-19T16:33:50.783Z,80.57
2023-12-19T16:36:17.554Z,79.67
2023-12-19T16:38:47.500Z,79.47
2023-12-19T16:41:13.967Z,79.57
2023-12-19T16:43:44.244Z,79.60
2023-12-19T16:46:11.104Z,81.40
2023-12-19T16:48:38.217Z,82.92
2023-12-19T16:51:06.028Z,83.32
2023-12-19T16:53:33.154Z,85.11
2023-12-19T16:55:59.628Z,85.85
2023-12-19T16:58:36.856Z,85.50
2023-12-19T17:01:10.565Z,85.98
2023-12-19T17:03:38.444Z,86.48
2023-12-19T17:06:05.816Z,86.98
2023-12-19T17:08:32.473Z,88.91
2023-12-19T17:10:59.063Z,89.00
2023-12-19T17:13:25.577Z,89.19
2023-12-19T17:15:52.237Z,89.54
2023-12-19T17:18:19.015Z,90.35
2023-12-19T17:20:46.246Z,90.78
2023-12-19T17:23:13.021Z,90.34
2023-12-19T17:25:39.729Z,89.14
2023-12-19T17:28:06.458Z,87.51
2023-12-19T17:30:35.528Z,86.67
2023-12-19T17:33:04.615Z,85.51
2023-12-19T17:35:31.542Z,85.08
2023-12-19T17:37:58.169Z,83.71
2023-12-19T17:40:24.674Z,81.85
2023-12-19T17:42:51.275Z,82.43
2023-12-19T17:45:17.836Z,82.27
2023-12-19T17:47:44.861Z,82.30
2023-12-19T17:50:11.747Z,81.61
2023-12-19T17:52:39.765Z,81.46
2023-12-19T17:55:06.783Z,81.74
2023-12-19T17:57:33.681Z,82.27
2023-12-19T18:00:00.310Z,82.15
2023-12-19T18:02:26.855Z,81.49
2023-12-19T18:04:53.444Z,83.14
2023-12-19T18:07:20.228Z,82.53
2023-12-19T18:09:46.883Z,83.38
2023-12-19T18:12:15.368Z,82.50
2023-12-19T18:14:42.028Z,82.24
2023-12-19T18:17:08.621Z,81.14
2023-12-19T18:19:35.697Z,80.27
2023-12-19T18:22:02.850Z,79.18
2023-12-19T18:24:29.561Z,79.38
2023-12-19T18:26:57.009Z,81.04
2023-12-19T18:29:24.596Z,80.46
2023-12-19T18:31:53.170Z,79.58
2023-12-19T18:34:20.432Z,78.66
2023-12-19T18:36:48.954Z,78.51
2023-12-19T18:39:16.351Z,78.29
2023-12-19T18:41:42.943Z,79.45
2023-12-19T18:44:09.490Z,78.28
2023-12-19T18:46:41.067Z,77.39
2023-12-19T18:49:08.408Z,77.39
2023-12-19T18:51:36.002Z,78.91
2023-12-19T18:54:02.642Z,79.21
2023-12-19T18:56:29.207Z,82.21
2023-12-19T18:58:55.710Z,80.78
2023-12-19T19:01:23.927Z,82.50
2023-12-19T19:03:50.840Z,82.60
2023-12-19T19:06:17.441Z,83.04
2023-12-19T19:08:43.928Z,82.89
2023-12-19T19:11:10.475Z,81.96
2023-12-19T19:13:37.079Z,82.01
2023-12-19T19:16:03.947Z,81.66
2023-12-19T19:18:30.375Z,81.11
2023-12-19T19:20:56.975Z,82.07
2023-12-19T19:23:23.907Z,83.74
2023-12-19T19:25:50.424Z,81.96
2023-12-19T19:28:20.044Z,80.74
2023-12-19T19:30:56.556Z,82.11
2023-12-19T19:33:26.808Z,84.55
2023-12-19T19:35:54.974Z,85.19
2023-12-19T19:38:26.270Z,84.51
2023-12-19T19:40:55.004Z,84.87
2023-12-19T19:43:21.514Z,84.22
2023-12-19T19:45:48.136Z,85.18
2023-12-19T19:48:14.742Z,85.94
2023-12-19T19:50:42.702Z,85.22
2023-12-19T19:53:09.676Z,84.79
2023-12-19T19:55:36.272Z,85.11
2023-12-19T19:58:02.965Z,85.08
2023-12-19T20:00:29.660Z,85.59
2023-12-19T20:02:56.215Z,85.88
2023-12-19T20:05:23.106Z,85.08
2023-12-19T20:07:49.872Z,85.60
2023-12-19T20:10:17.143Z,86.43
2023-12-19T20:12:44.591Z,88.32
2023-12-19T20:15:11.453Z,88.27
2023-12-19T20:17:39.040Z,88.51
2023-12-19T20:20:07.977Z,88.46
2023-12-19T20:22:35.255Z,88.73
2023-12-19T20:25:04.585Z,89.58
2023-12-19T20:27:31.416Z,89.38
2023-12-19T20:29:59.228Z,89.77
2023-12-19T20:32:26.429Z,88.91
2023-12-19T20:34:52.959Z,88.48
2023-12-19T20:37:19.682Z,87.54
2023-12-19T20:39:46.229Z,85.40
2023-12-19T20:42:13.841Z,85.08
2023-12-19T20:44:41.241Z,84.00
2023-12-19T20:47:08.050Z,84.44
2023-12-19T20:49:35.021Z,83.97
2023-12-19T20:52:02.278Z,83.55
2023-12-19T20:54:29.052Z,83.50
2023-12-19T20:56:55.658Z,82.84
2023-12-19T20:59:22.208Z,85.85
2023-12-19T21:01:48.745Z,87.55
2023-12-19T21:04:15.559Z,88.08
2023-12-19T21:06:42.346Z,89.16
2023-12-19T21:09:10.860Z,88.11
2023-12-19T21:11:37.677Z,88.05
2023-12-19T21:14:04.341Z,86.83
2023-12-19T21:16:31.120Z,86.18
2023-12-19T21:18:57.694Z,85.09
2023-12-19T21:21:24.374Z,85.56
2023-12-19T21:23:51.849Z,88.23
2023-12-19T21:26:18.736Z,87.30
2023-12-19T21:28:45.499Z,87.39
2023-12-19T21:31:12.437Z,87.23
2023-12-19T21:33:39.541Z,86.48
2023-12-19T21:36:06.137Z,84.97
2023-12-19T21:38:32.758Z,84.84
2023-12-19T21:40:59.235Z,84.96
2023-12-19T21:43:25.904Z,86.43
2023-12-19T21:45:52.609Z,88.04
2023-12-19T21:48:19.233Z,89.13
2023-12-19T21:50:47.380Z,89.03
2023-12-19T21:53:14.049Z,87.97
2023-12-19T21:55:40.563Z,87.20
2023-12-19T21:58:07.184Z,88.40
2023-12-19T22:00:33.755Z,88.87
2023-12-19T22:03:00.347Z,89.30
2023-12-19T22:05:26.954Z,87.40
2023-12-19T22:07:53.608Z,87.16
2023-12-19T22:10:20.384Z,88.50
2023-12-19T22:12:47.492Z,89.27
2023-12-19T22:15:16.502Z,89.29
2023-12-19T22:17:43.400Z,90.09
2023-12-19T22:20:10.543Z,89.83
2023-12-19T22:22:37.239Z,90.29
2023-12-19T22:25:04.081Z,89.40
2023-12-19T22:27:30.561Z,88.96
2023-12-19T22:29:57.071Z,87.65
2023-12-19T22:32:24.284Z,86.34
2023-12-19T22:34:50.912Z,87.12
2023-12-19T22:37:17.699Z,88.49
2023-12-19T22:39:44.364Z,88.92
2023-12-19T22:42:10.924Z,88.40
2023-12-19T22:44:37.441Z,87.50
2023-12-19T22:47:04.667Z,86.32
2023-12-19T22:49:32.870Z,85.79
2023-12-19T22:51:59.990Z,86.58
2023-12-19T22:54:26.539Z,86.30
2023-12-19T22:56:53.116Z,84.49
2023-12-19T22:59:19.684Z,84.89
2023-12-19T23:01:53.465Z,85.16
2023-12-19T23:04:21.399Z,85.60
2023-12-19T23:06:48.115Z,86.16
2023-12-19T23:09:14.825Z,86.35
2023-12-19T23:11:41.594Z,86.73
2023-12-19T23:14:08.746Z,87.37
2023-12-19T23:16:35.528Z,87.93
2023-12-19T23:19:02.389Z,88.12
2023-12-19T23:21:29.361Z,87.58
2023-12-19T23:23:55.904Z,87.80
2023-12-19T23:26:23.494Z,86.88
2023-12-19T23:28:49.994Z,85.28
2023-12-19T23:31:21.734Z,84.70
2023-12-19T23:33:51.470Z,85.30
2023-12-19T23:36:18.311Z,85.69
2023-12-19T23:38:45.315Z,84.96
2023-12-19T23:41:18.998Z,84.26
2023-12-19T23:43:46.453Z,85.66
2023-12-19T23:46:20.841Z,85.52
2023-12-19T23:48:47.822Z,85.94
2023-12-19T23:51:16.195Z,85.64
2023-12-19T23:53:43.543Z,86.04
2023-12-19T23:56:10.404Z,85.65
2023-12-19T23:58:37.214Z,85.70
